Time;durP1;ratioP1;P1;durP2;ratioP2;P2;SDS_P1;SDS_P2;PMS_P1;PMS_P2;Temp;Humidity;BMP_temperature;BMP_pressure;BME280_temperature;BME280_humidity;BME280_pressure;Samples;Min_cycle;Max_cycle;Signal;HPM_P1;HPM_P2
2023/05/18 00:01:23;;;;;;;0.40;0.40;;;22.00;48.20;;;;;;5053018;28;20048;-56
2023/05/18 00:03:52;;;;;;;0.50;0.50;;;22.10;48.20;;;;;;5053132;28;20040;-54
2023/05/18 00:06:21;;;;;;;0.73;0.70;;;22.10;48.30;;;;;;5053273;28;20072;-56
2023/05/18 00:08:48;;;;;;;0.40;0.40;;;22.10;48.30;;;;;;5052615;28;20500;-56
2023/05/18 00:11:16;;;;;;;0.75;0.75;;;22.10;48.30;;;;;;5052982;28;20127;-57
2023/05/18 00:13:43;;;;;;;0.98;0.52;;;22.00;48.30;;;;;;5053237;28;20049;-56
2023/05/18 00:16:12;;;;;;;0.55;0.55;;;22.00;48.30;;;;;;5052793;28;20055;-55
2023/05/18 00:18:40;;;;;;;0.90;0.70;;;22.00;48.40;;;;;;5051545;28;20485;-56
2023/05/18 00:21:07;;;;;;;1.25;0.63;;;22.00;48.40;;;;;;5051730;28;20481;-56
2023/05/18 00:23:38;;;;;;;0.45;0.40;;;22.00;48.40;;;;;;5052443;28;20106;-56
2023/05/18 00:26:05;;;;;;;;;;;22.00;48.40;;;;;;5053588;28;20077;-53
2023/05/18 00:28:32;;;;;;;1.10;0.60;;;22.00;48.40;;;;;;5052733;28;19921;-56
2023/05/18 00:31:00;;;;;;;0.60;0.60;;;22.00;48.40;;;;;;5052980;28;20138;-56
2023/05/18 00:33:27;;;;;;;0.50;0.50;;;22.00;48.40;;;;;;5052720;28;20049;-56
2023/05/18 00:35:56;;;;;;;0.70;0.70;;;22.10;48.40;;;;;;5052750;28;20080;-56
2023/05/18 00:38:23;;;;;;;1.02;0.40;;;22.10;48.30;;;;;;5051948;28;20489;-57
2023/05/18 00:40:50;;;;;;;0.70;0.70;;;22.10;48.30;;;;;;5052120;28;20103;-57
2023/05/18 00:43:19;;;;;;;0.60;0.60;;;22.10;48.30;;;;;;5052247;28;20565;-57
2023/05/18 00:45:46;;;;;;;1.42;0.90;;;22.10;48.20;;;;;;5052960;28;20056;-56
2023/05/18 00:48:13;;;;;;;0.65;0.60;;;22.10;48.30;;;;;;5052908;28;20401;-56
2023/05/18 00:50:40;;;;;;;0.70;0.60;;;22.00;48.20;;;;;;5052601;28;20045;-56
2023/05/18 00:53:09;;;;;;;0.40;0.40;;;22.10;48.20;;;;;;5052773;28;20124;-56
2023/05/18 00:55:37;;;;;;;1.50;0.50;;;22.10;48.20;;;;;;5052372;28;20060;-57
2023/05/18 00:58:04;;;;;;;0.63;0.63;;;22.10;48.20;;;;;;5051671;28;20049;-57
2023/05/18 01:00:32;;;;;;;0.60;0.60;;;22.10;48.20;;;;;;5052228;28;20136;-58
2023/05/18 01:03:00;;;;;;;0.57;0.57;;;22.10;48.20;;;;;;5051928;28;20102;-57
2023/05/18 01:05:28;;;;;;;2.28;0.65;;;22.10;48.20;;;;;;5052480;28;20077;-58
2023/05/18 01:07:56;;;;;;;0.52;0.43;;;22.10;48.20;;;;;;5052276;28;20551;-56
2023/05/18 01:10:23;;;;;;;0.77;0.77;;;22.10;48.20;;;;;;5052042;28;20511;-56
2023/05/18 01:13:00;;;;;;;0.77;0.77;;;22.10;48.20;;;;;;5051706;28;20041;-55
2023/05/18 01:15:35;;;;;;;0.80;0.80;;;22.10;48.20;;;;;;5051692;28;20450;-57
2023/05/18 01:18:24;;;;;;;1.65;0.63;;;22.10;48.20;;;;;;5050963;28;20167;-56
2023/05/18 01:21:24;;;;;;;0.82;0.82;;;22.10;48.20;;;;;;5051600;28;20049;-57
2023/05/18 01:24:24;;;;;;;0.50;0.50;;;22.10;48.10;;;;;;5052306;28;20049;-56
2023/05/18 01:26:56;;;;;;;1.00;0.70;;;22.00;48.10;;;;;;5051116;28;20037;-56
2023/05/18 01:29:29;;;;;;;1.65;0.70;;;22.00;48.20;;;;;;5051609;28;20315;-57
2023/05/18 01:31:57;;;;;;;1.42;0.63;;;22.00;48.20;;;;;;5051145;28;20553;-55
2023/05/18 01:34:24;;;;;;;3.05;0.80;;;22.00;48.20;;;;;;5053158;28;20056;-56
2023/05/18 01:36:52;;;;;;;1.08;0.90;;;22.00;48.10;;;;;;5053994;28;20139;-56
2023/05/18 01:39:19;;;;;;;0.68;0.68;;;22.00;48.70;;;;;;5054987;28;20425;-56
2023/05/18 01:42:02;;;;;;;0.50;0.50;;;22.00;48.10;;;;;;5054628;28;20048;-55
2023/05/18 01:44:44;;;;;;;1.27;0.82;;;22.00;48.20;;;;;;5054742;28;20053;-56
2023/05/18 01:47:16;;;;;;;0.95;0.43;;;22.00;48.10;;;;;;5054426;28;20087;-56
2023/05/18 01:50:03;;;;;;;0.80;0.80;;;22.00;48.10;;;;;;5053612;28;20103;-56
2023/05/18 01:52:56;;;;;;;0.98;0.95;;;22.00;48.10;;;;;;5054530;28;20045;-56
2023/05/18 01:55:26;;;;;;;0.60;0.60;;;22.00;48.10;;;;;;5054003;28;20091;-57
2023/05/18 01:57:55;;;;;;;;;;;22.00;48.10;;;;;;5055089;28;20045;-56
2023/05/18 02:00:23;;;;;;;1.02;0.82;;;22.00;48.10;;;;;;5055064;28;19963;-57
2023/05/18 02:02:50;;;;;;;0.95;0.80;;;22.00;48.10;;;;;;5054423;28;20049;-55
2023/05/18 02:05:18;;;;;;;1.42;0.82;;;22.00;48.20;;;;;;5054031;28;20559;-57
2023/05/18 02:07:46;;;;;;;1.83;0.82;;;22.00;48.30;;;;;;5055063;28;20140;-57
2023/05/18 02:10:13;;;;;;;2.80;0.80;;;22.00;48.30;;;;;;5054637;28;20128;-56
2023/05/18 02:12:41;;;;;;;1.38;0.60;;;22.00;48.30;;;;;;5054950;28;20136;-57
2023/05/18 02:15:08;;;;;;;0.73;0.73;;;22.00;48.30;;;;;;5054441;28;20498;-56
2023/05/18 02:17:36;;;;;;;0.55;0.52;;;22.00;48.30;;;;;;5054376;28;20037;-56
2023/05/18 02:20:06;;;;;;;0.90;0.90;;;22.00;48.40;;;;;;5054913;28;20398;-56
2023/05/18 02:22:33;;;;;;;1.05;0.70;;;22.00;48.40;;;;;;5054069;28;20064;-56
2023/05/18 02:25:01;;;;;;;0.95;0.73;;;22.00;48.50;;;;;;5052842;28;20076;-56
2023/05/18 02:27:28;;;;;;;0.70;0.70;;;22.00;48.30;;;;;;5053885;28;20084;-57
2023/05/18 02:29:56;;;;;;;0.80;0.80;;;22.00;48.20;;;;;;5054528;28;20080;-56
2023/05/18 02:32:23;;;;;;;1.77;1.15;;;22.00;48.10;;;;;;5053751;28;20543;-56
2023/05/18 02:34:52;;;;;;;1.52;0.80;;;22.00;48.00;;;;;;5053733;28;20501;-56
2023/05/18 02:37:21;;;;;;;1.33;0.93;;;22.00;48.00;;;;;;5054134;28;20052;-55
2023/05/18 02:39:49;;;;;;;0.90;0.60;;;22.00;48.00;;;;;;5066323;28;20519;-56
2023/05/18 02:42:16;;;;;;;3.95;0.80;;;22.00;48.00;;;;;;5073827;28;20400;-55
2023/05/18 02:44:43;;;;;;;1.40;1.30;;;22.00;48.00;;;;;;5074044;28;20128;-57
2023/05/18 02:47:10;;;;;;;0.85;0.60;;;22.00;48.00;;;;;;5074330;28;20056;-55
2023/05/18 02:49:37;;;;;;;0.57;0.57;;;22.00;48.00;;;;;;5074699;28;20504;-56
2023/05/18 02:52:05;;;;;;;0.60;0.60;;;22.00;48.10;;;;;;5073829;28;20080;-56
2023/05/18 02:54:32;;;;;;;3.95;0.63;;;22.00;48.10;;;;;;5072840;28;20052;-56
2023/05/18 02:56:59;;;;;;;1.02;0.70;;;22.00;48.10;;;;;;5073901;28;20056;-56
2023/05/18 02:59:26;;;;;;;1.00;0.90;;;22.00;48.00;;;;;;5073976;28;20103;-56
2023/05/18 03:01:53;;;;;;;1.55;0.63;;;22.00;48.00;;;;;;5073062;28;20707;-56
2023/05/18 03:04:20;;;;;;;0.70;0.70;;;22.00;48.00;;;;;;5073599;28;20070;-56
2023/05/18 03:06:51;;;;;;;0.88;0.65;;;22.00;48.00;;;;;;5058198;28;20087;-58
2023/05/18 03:09:19;;;;;;;1.33;0.82;;;22.00;48.10;;;;;;5052234;28;20057;-56
2023/05/18 03:11:46;;;;;;;0.93;0.57;;;22.00;48.00;;;;;;5053108;28;20136;-56
2023/05/18 03:14:14;;;;;;;1.58;0.90;;;22.00;48.00;;;;;;5053426;28;20084;-56
2023/05/18 03:16:41;;;;;;;0.93;0.82;;;22.00;48.00;;;;;;5052740;28;20076;-57
2023/05/18 03:19:08;;;;;;;0.77;0.77;;;22.00;48.00;;;;;;5053192;28;20507;-57
2023/05/18 03:21:35;;;;;;;0.77;0.70;;;22.00;48.00;;;;;;5053939;28;20045;-56
2023/05/18 03:24:03;;;;;;;1.48;0.82;;;22.00;48.00;;;;;;5071955;28;20052;-56
2023/05/18 03:26:30;;;;;;;0.70;0.65;;;22.00;48.00;;;;;;5067947;28;20048;-56
2023/05/18 03:28:58;;;;;;;0.70;0.70;;;22.00;48.10;;;;;;5073169;28;20044;-57
2023/05/18 03:31:25;;;;;;;0.70;0.70;;;22.00;48.00;;;;;;5072444;28;20074;-56
2023/05/18 03:33:52;;;;;;;2.25;1.10;;;22.00;48.10;;;;;;5053885;28;20044;-57
2023/05/18 03:36:21;;;;;;;0.82;0.70;;;22.00;48.10;;;;;;5067318;28;20122;-56
2023/05/18 03:38:48;;;;;;;1.25;1.00;;;22.00;48.00;;;;;;5052826;28;20053;-56
2023/05/18 03:41:15;;;;;;;1.35;0.80;;;22.00;48.10;;;;;;5055129;28;20128;-55
2023/05/18 03:43:42;;;;;;;1.45;0.70;;;22.00;48.00;;;;;;5070837;28;20052;-56
2023/05/18 03:46:09;;;;;;;1.75;0.90;;;22.00;48.00;;;;;;5071310;28;20049;-57
2023/05/18 03:48:37;;;;;;;0.85;0.63;;;22.00;48.10;;;;;;5074406;28;20052;-57
2023/05/18 03:51:05;;;;;;;1.25;0.68;;;22.00;48.00;;;;;;5071766;28;20044;-56
2023/05/18 03:53:32;;;;;;;0.88;0.65;;;22.00;48.00;;;;;;5070616;28;20078;-56
2023/05/18 03:56:00;;;;;;;0.80;0.75;;;22.00;48.00;;;;;;5071702;28;20086;-56
2023/05/18 03:58:28;;;;;;;1.10;0.90;;;22.00;48.00;;;;;;5068737;28;20609;-56
2023/05/18 04:00:55;;;;;;;0.70;0.70;;;22.00;48.00;;;;;;5068110;28;20083;-57
2023/05/18 04:03:23;;;;;;;0.77;0.77;;;22.00;48.00;;;;;;5071483;28;20102;-56
2023/05/18 04:05:52;;;;;;;0.77;0.70;;;22.00;48.00;;;;;;5071202;28;20049;-56
2023/05/18 04:08:19;;;;;;;0.85;0.85;;;22.00;48.10;;;;;;5064473;28;20059;-56
2023/05/18 04:10:47;;;;;;;1.75;1.00;;;22.00;48.10;;;;;;5072158;28;20053;-56
2023/05/18 04:13:14;;;;;;;0.75;0.70;;;22.00;48.20;;;;;;5072759;28;20117;-57
2023/05/18 04:15:42;;;;;;;1.27;1.17;;;21.90;48.10;;;;;;5071387;28;20052;-56
2023/05/18 04:18:09;;;;;;;0.70;0.70;;;21.90;48.20;;;;;;5068513;28;20139;-57
2023/05/18 04:20:41;;;;;;;3.63;0.75;;;21.90;48.20;;;;;;5074725;28;20048;-56
2023/05/18 04:23:08;;;;;;;1.00;0.90;;;22.00;48.20;;;;;;5082614;28;20127;-55
2023/05/18 04:25:38;;;;;;;0.75;0.65;;;22.00;48.10;;;;;;5073022;28;20075;-56
2023/05/18 04:28:05;;;;;;;1.25;1.15;;;22.00;48.00;;;;;;5070482;28;20068;-57
2023/05/18 04:30:34;;;;;;;0.70;0.70;;;22.00;48.10;;;;;;5071565;28;20131;-56
2023/05/18 04:33:03;;;;;;;0.70;0.70;;;22.00;48.00;;;;;;5072158;28;20052;-59
2023/05/18 04:35:30;;;;;;;1.05;0.93;;;22.00;48.60;;;;;;5071913;28;20102;-56
2023/05/18 04:37:58;;;;;;;0.80;0.80;;;22.00;47.90;;;;;;5071390;28;20076;-56
2023/05/18 04:40:25;;;;;;;0.85;0.85;;;22.00;47.80;;;;;;5071698;28;20106;-56
2023/05/18 04:42:52;;;;;;;1.15;1.05;;;22.00;47.70;;;;;;5072940;28;20084;-56
2023/05/18 04:45:20;;;;;;;0.77;0.77;;;22.00;47.70;;;;;;5070539;28;20080;-57
2023/05/18 04:47:52;;;;;;;1.00;0.80;;;22.00;47.80;;;;;;5057585;28;20049;-56
2023/05/18 04:50:22;;;;;;;1.42;1.00;;;22.00;47.80;;;;;;5057493;28;20047;-56
2023/05/18 04:52:51;;;;;;;1.58;1.25;;;22.00;47.80;;;;;;5071045;28;20087;-56
2023/05/18 04:55:26;;;;;;;1.85;0.98;;;22.00;47.80;;;;;;5067375;28;20040;-56
2023/05/18 04:57:59;;;;;;;1.33;1.00;;;22.00;47.80;;;;;;5070752;28;20049;-57
2023/05/18 05:00:27;;;;;;;1.25;1.15;;;22.00;47.80;;;;;;5069518;28;20045;-56
2023/05/18 05:02:55;;;;;;;1.05;1.00;;;22.00;47.70;;;;;;5071484;28;20045;-56
2023/05/18 05:05:24;;;;;;;1.42;0.90;;;21.90;47.60;;;;;;5071330;28;20052;-56
2023/05/18 05:07:52;;;;;;;1.33;1.23;;;22.00;47.60;;;;;;5071829;28;20135;-57
2023/05/18 05:10:20;;;;;;;1.23;0.90;;;22.00;47.60;;;;;;5074864;28;20508;-57
2023/05/18 05:12:48;;;;;;;1.25;1.10;;;21.90;47.70;;;;;;5074576;28;20083;-57
2023/05/18 05:15:16;;;;;;;1.35;1.25;;;21.90;47.60;;;;;;5074251;28;20126;-54
2023/05/18 05:17:46;;;;;;;1.50;1.35;;;21.90;47.60;;;;;;5074553;28;20094;-57
2023/05/18 05:20:13;;;;;;;3.80;1.13;;;21.90;47.50;;;;;;5075562;28;20063;-57
2023/05/18 05:22:40;;;;;;;0.82;0.82;;;22.00;47.70;;;;;;5071315;28;20082;-57
2023/05/18 05:25:07;;;;;;;2.22;1.10;;;22.00;47.90;;;;;;5069903;28;20447;-58
2023/05/18 05:27:36;;;;;;;3.70;1.10;;;22.00;48.00;;;;;;5062055;28;20048;-57
2023/05/18 05:30:03;;;;;;;1.85;1.45;;;22.00;48.20;;;;;;5067956;28;20052;-57
2023/05/18 05:32:31;;;;;;;1.33;1.00;;;22.00;48.30;;;;;;5067255;28;20097;-53
2023/05/18 05:34:58;;;;;;;1.67;0.93;;;22.00;48.30;;;;;;5065837;28;20166;-57
2023/05/18 05:37:26;;;;;;;1.98;1.13;;;22.00;48.30;;;;;;5071623;28;20036;-53
2023/05/18 05:39:55;;;;;;;1.58;1.15;;;22.00;48.30;;;;;;5064768;28;20052;-57
2023/05/18 05:42:22;;;;;;;1.20;1.10;;;22.00;48.20;;;;;;5063030;28;20044;-56
2023/05/18 05:44:49;;;;;;;2.03;1.13;;;22.10;48.20;;;;;;5065055;28;20049;-58
2023/05/18 05:47:16;;;;;;;1.40;1.30;;;22.00;48.20;;;;;;5066548;28;20052;-58
2023/05/18 05:49:44;;;;;;;2.63;1.83;;;22.10;48.10;;;;;;5064971;28;20076;-58
2023/05/18 05:52:11;;;;;;;2.00;1.60;;;22.10;47.90;;;;;;5062607;28;20052;-59
2023/05/18 05:54:40;;;;;;;4.82;1.38;;;22.10;47.70;;;;;;5063100;28;20121;-58
2023/05/18 05:57:07;;;;;;;2.55;1.40;;;22.20;47.60;;;;;;5063252;28;20143;-58
2023/05/18 05:59:34;;;;;;;1.38;1.25;;;22.10;47.40;;;;;;5064006;28;20079;-58
2023/05/18 06:02:02;;;;;;;1.80;1.20;;;22.20;47.40;;;;;;5061196;28;20489;-57
2023/05/18 06:04:29;;;;;;;2.78;1.65;;;22.10;47.30;;;;;;5062746;28;20049;-58
2023/05/18 06:06:57;;;;;;;1.50;1.40;;;22.20;47.30;;;;;;5061708;28;20055;-59
2023/05/18 06:09:24;;;;;;;2.97;1.40;;;22.20;47.30;;;;;;5061388;28;20101;-59
2023/05/18 06:11:51;;;;;;;2.35;1.40;;;22.20;47.40;;;;;;5061857;28;20451;-59
2023/05/18 06:14:18;;;;;;;1.77;1.52;;;22.30;47.60;;;;;;5066322;28;20117;-59
2023/05/18 06:16:47;;;;;;;3.97;1.70;;;22.30;47.60;;;;;;5067662;28;20052;-59
2023/05/18 06:19:14;;;;;;;2.67;1.75;;;22.30;47.70;;;;;;5066858;28;20076;-59
2023/05/18 06:21:43;;;;;;;2.08;1.73;;;22.40;47.80;;;;;;5065189;28;20056;-58
2023/05/18 06:24:10;;;;;;;2.85;1.70;;;22.40;47.70;;;;;;5066949;28;20049;-58
2023/05/18 06:26:37;;;;;;;2.50;1.40;;;22.50;47.70;;;;;;5066242;28;20175;-58
2023/05/18 06:29:07;;;;;;;1.38;1.27;;;22.50;47.70;;;;;;5064687;28;20132;-59
2023/05/18 06:31:35;;;;;;;;;;;22.60;47.70;;;;;;5065800;28;20139;-59
2023/05/18 06:34:02;;;;;;;5.53;1.65;;;22.60;47.70;;;;;;5068823;28;19935;-58
2023/05/18 06:36:30;;;;;;;3.10;1.67;;;22.60;47.80;;;;;;5065095;28;20110;-59
2023/05/18 06:38:58;;;;;;;2.40;1.65;;;22.70;47.70;;;;;;5063276;28;20051;-58
2023/05/18 06:41:25;;;;;;;3.78;1.80;;;22.70;47.60;;;;;;5061912;28;20037;-59
2023/05/18 06:43:52;;;;;;;2.50;1.75;;;22.70;47.50;;;;;;5064048;28;20532;-59
2023/05/18 06:46:21;;;;;;;4.60;2.10;;;22.70;47.50;;;;;;5062097;28;20109;-58
2023/05/18 06:48:50;;;;;;;2.05;1.75;;;22.70;47.40;;;;;;5066602;28;20049;-58
2023/05/18 06:51:17;;;;;;;2.42;1.90;;;22.80;47.30;;;;;;5064034;28;20080;-59
2023/05/18 06:53:45;;;;;;;5.32;2.30;;;22.70;46.20;;;;;;5067303;28;20566;-58
2023/05/18 06:56:12;;;;;;;2.65;2.10;;;22.70;45.30;;;;;;5064711;28;20044;-58
2023/05/18 06:58:41;;;;;;;2.33;1.90;;;22.60;46.00;;;;;;5064250;28;20045;-61
2023/05/18 07:01:09;;;;;;;2.80;1.83;;;22.60;46.30;;;;;;5060391;28;20452;-59
2023/05/18 07:03:37;;;;;;;4.35;1.92;;;22.60;46.50;;;;;;5064420;28;20393;-57
2023/05/18 07:06:04;;;;;;;2.45;2.25;;;22.60;46.60;;;;;;5062087;28;20052;-59
2023/05/18 07:08:32;;;;;;;1.48;1.38;;;22.60;46.70;;;;;;5065887;28;20082;-60
2023/05/18 07:11:01;;;;;;;2.40;1.45;;;22.70;46.80;;;;;;5059501;28;20543;-60
2023/05/18 07:13:28;;;;;;;1.67;1.55;;;22.70;46.80;;;;;;5063722;28;20064;-58
2023/05/18 07:15:56;;;;;;;4.78;1.60;;;22.70;46.90;;;;;;5063411;28;20071;-60
2023/05/18 07:18:23;;;;;;;6.55;3.03;;;22.70;46.80;;;;;;5063810;28;20055;-60
2023/05/18 07:20:50;;;;;;;8.63;3.53;;;22.70;44.70;;;;;;5062232;28;20110;-62
2023/05/18 07:23:18;;;;;;;5.68;3.17;;;22.60;44.50;;;;;;5064704;28;20247;-62
2023/05/18 07:25:45;;;;;;;4.75;2.72;;;22.50;44.60;;;;;;5066919;28;20060;-61
2023/05/18 07:28:12;;;;;;;7.13;2.97;;;22.40;45.40;;;;;;5058946;28;20068;-61
2023/05/18 07:30:40;;;;;;;3.42;2.30;;;22.30;45.20;;;;;;5062245;28;20082;-59
2023/05/18 07:33:07;;;;;;;5.70;2.20;;;22.30;45.80;;;;;;5065255;28;20477;-59
2023/05/18 07:35:35;;;;;;;2.45;2.25;;;22.20;46.30;;;;;;5064193;28;20048;-59
2023/05/18 07:38:02;;;;;;;2.95;2.00;;;22.30;46.70;;;;;;5061295;28;20456;-59
2023/05/18 07:40:29;;;;;;;4.60;2.55;;;22.30;46.80;;;;;;5060094;28;20622;-59
2023/05/18 07:42:57;;;;;;;4.70;2.30;;;22.40;46.90;;;;;;5061202;28;20045;-59
2023/05/18 07:45:24;;;;;;;6.25;2.13;;;22.40;46.90;;;;;;5063475;28;20041;-58
2023/05/18 07:47:53;;;;;;;3.47;2.10;;;22.50;47.00;;;;;;5064380;28;20113;-59
2023/05/18 07:50:20;;;;;;;4.60;1.80;;;22.50;47.10;;;;;;5062894;28;20504;-58
2023/05/18 07:52:47;;;;;;;3.25;2.00;;;22.50;47.00;;;;;;5062251;28;20090;-60
2023/05/18 07:55:16;;;;;;;4.00;2.65;;;22.60;47.00;;;;;;5063308;28;20513;-59
2023/05/18 07:57:46;;;;;;;4.53;1.90;;;22.60;47.00;;;;;;5056882;28;20090;-57
2023/05/18 08:00:13;;;;;;;3.33;1.92;;;22.60;47.00;;;;;;5064403;28;20059;-58
2023/05/18 08:02:43;;;;;;;4.97;1.67;;;22.70;46.90;;;;;;5056547;28;20080;-57
2023/05/18 08:05:11;;;;;;;5.32;1.77;;;22.70;46.80;;;;;;5064258;28;20116;-57
2023/05/18 08:07:38;;;;;;;2.13;1.60;;;22.70;46.80;;;;;;5063076;28;20467;-58
2023/05/18 08:10:05;;;;;;;5.65;2.47;;;22.80;46.80;;;;;;5065332;28;20409;-58
2023/05/18 08:12:32;;;;;;;5.60;1.92;;;22.80;46.90;;;;;;5067842;28;20454;-58
2023/05/18 08:15:00;;;;;;;2.10;1.90;;;22.90;47.00;;;;;;5064187;28;20514;-58
2023/05/18 08:17:27;;;;;;;3.13;2.17;;;22.90;47.00;;;;;;5063670;28;20124;-57
2023/05/18 08:19:55;;;;;;;3.58;2.10;;;22.90;46.90;;;;;;5076708;28;20485;-57
2023/05/18 08:22:23;;;;;;;5.82;1.90;;;23.00;47.00;;;;;;5063613;28;20416;-57
2023/05/18 08:24:50;;;;;;;5.15;1.80;;;23.00;47.00;;;;;;5058908;28;20135;-57
2023/05/18 08:27:18;;;;;;;3.85;2.13;;;23.00;46.90;;;;;;5066092;28;20080;-56
2023/05/18 08:29:46;;;;;;;3.92;2.22;;;23.00;46.90;;;;;;5064516;28;20110;-57
2023/05/18 08:32:13;;;;;;;5.80;2.20;;;23.00;47.00;;;;;;5062004;28;20047;-58
2023/05/18 08:34:41;;;;;;;6.03;2.55;;;23.10;47.10;;;;;;5062001;28;20048;-59
2023/05/18 08:37:08;;;;;;;5.68;2.20;;;23.10;47.10;;;;;;5062082;28;20381;-58
2023/05/18 08:39:36;;;;;;;2.38;1.70;;;23.10;47.00;;;;;;5065380;28;20084;-56
2023/05/18 08:42:17;;;;;;;3.03;1.95;;;23.10;47.00;;;;;;5061476;28;20045;-57
2023/05/18 08:45:07;;;;;;;5.90;2.53;;;23.10;46.90;;;;;;5066842;28;20052;-57
2023/05/18 08:47:36;;;;;;;2.33;1.90;;;23.20;46.80;;;;;;5071353;28;20119;-56
2023/05/18 08:50:05;;;;;;;5.25;2.00;;;23.30;46.80;;;;;;5069671;28;20301;-60
2023/05/18 08:52:36;;;;;;;9.38;2.45;;;23.30;46.70;;;;;;5066959;28;20137;-59
2023/05/18 08:55:06;;;;;;;6.40;2.55;;;23.30;46.70;;;;;;5068009;28;20045;-60
2023/05/18 08:57:37;;;;;;;3.75;2.22;;;23.30;46.60;;;;;;5069343;28;20049;-58
2023/05/18 09:00:06;;;;;;;7.68;2.80;;;23.40;46.60;;;;;;5068656;28;20048;-60
2023/05/18 09:02:35;;;;;;;5.30;3.33;;;23.40;44.20;;;;;;5062527;28;20048;-60
2023/05/18 09:05:04;;;;;;;5.05;3.58;;;23.30;42.90;;;;;;5069640;28;20049;-59
2023/05/18 09:07:31;;;;;;;4.78;2.85;;;23.00;42.20;;;;;;5066355;28;20114;-59
2023/05/18 09:09:59;;;;;;;6.30;3.10;;;22.70;42.60;;;;;;5067705;28;20047;-58
2023/05/18 09:12:27;;;;;;;6.07;2.30;;;22.50;43.70;;;;;;5068440;28;20044;-59
2023/05/18 09:14:55;;;;;;;4.05;2.55;;;22.50;44.50;;;;;;5068248;28;20052;-59
2023/05/18 09:17:23;;;;;;;7.75;2.40;;;22.50;45.10;;;;;;5071180;28;20048;-59
2023/05/18 09:19:50;;;;;;;6.38;2.75;;;22.60;45.40;;;;;;5069954;28;20127;-59
2023/05/18 09:22:17;;;;;;;3.92;2.53;;;22.60;45.60;;;;;;5068378;28;20492;-58
2023/05/18 09:24:46;;;;;;;3.35;3.05;;;22.70;45.70;;;;;;5068042;28;20447;-57
2023/05/18 09:27:13;;;;;;;5.15;2.00;;;22.80;45.80;;;;;;5067416;28;20087;-58
2023/05/18 09:29:55;;;;;;;3.55;2.47;;;22.80;45.80;;;;;;5062849;28;20131;-58
2023/05/18 09:32:23;;;;;;;6.40;2.55;;;23.00;45.80;;;;;;5061650;28;20451;-58
2023/05/18 09:34:52;;;;;;;4.32;2.20;;;23.00;45.80;;;;;;5064583;28;20131;-58
2023/05/18 09:37:20;;;;;;;5.28;2.10;;;23.10;45.80;;;;;;5064359;28;20076;-59
2023/05/18 09:39:58;;;;;;;4.72;2.20;;;23.10;45.70;;;;;;5065546;28;20412;-59
2023/05/18 09:42:43;;;;;;;3.30;2.22;;;23.10;45.70;;;;;;5080916;28;20064;-58
2023/05/18 09:45:17;;;;;;;2.20;1.98;;;23.20;45.70;;;;;;5065344;28;20138;-59
2023/05/18 09:47:45;;;;;;;3.40;2.47;;;23.20;45.70;;;;;;5066665;28;20480;-58
2023/05/18 09:50:13;;;;;;;3.25;1.95;;;23.30;45.60;;;;;;5066589;28;20045;-58
2023/05/18 09:52:41;;;;;;;7.45;2.30;;;23.30;45.70;;;;;;5066751;28;20055;-58
2023/05/18 09:55:10;;;;;;;4.90;2.00;;;23.30;45.60;;;;;;5067078;28;20044;-58
2023/05/18 09:57:41;;;;;;;3.53;2.30;;;23.30;45.50;;;;;;5063982;28;20079;-58
2023/05/18 10:00:10;;;;;;;3.25;2.45;;;23.30;46.00;;;;;;5065608;28;20036;-58
2023/05/18 10:02:44;;;;;;;4.07;2.53;;;23.30;45.40;;;;;;5064204;28;20048;-58
2023/05/18 10:05:20;;;;;;;6.70;3.00;;;23.30;45.20;;;;;;5068010;28;20094;-60
2023/05/18 10:07:52;;;;;;;8.63;3.35;;;23.30;43.20;;;;;;5071509;28;20052;-62
2023/05/18 10:10:21;;;;;;;5.88;3.35;;;23.10;43.60;;;;;;5064533;28;20500;-60
2023/05/18 10:12:53;;;;;;;5.30;2.97;;;23.00;43.60;;;;;;5070458;28;20090;-59
2023/05/18 10:15:22;;;;;;;3.88;2.20;;;22.90;44.00;;;;;;5068283;28;20390;-59
2023/05/18 10:17:53;;;;;;;4.07;2.27;;;22.80;44.70;;;;;;5067234;28;20078;-58
2023/05/18 10:20:28;;;;;;;2.70;2.30;;;22.80;44.90;;;;;;5066336;28;20380;-61
2023/05/18 10:22:59;;;;;;;5.10;2.75;;;22.80;45.00;;;;;;5072505;28;20106;-59
2023/05/18 10:25:28;;;;;;;4.57;2.20;;;22.90;45.10;;;;;;5069510;28;20100;-57
2023/05/18 10:27:57;;;;;;;4.85;2.20;;;22.90;45.00;;;;;;5070931;28;20102;-52
2023/05/18 10:30:26;;;;;;;3.28;2.08;;;22.90;45.00;;;;;;5065958;28;20048;-54
2023/05/18 10:32:55;;;;;;;1.80;1.70;;;23.00;45.00;;;;;;5065651;28;20136;-57
2023/05/18 10:35:27;;;;;;;2.40;2.20;;;23.00;45.00;;;;;;5061809;28;20063;-56
2023/05/18 10:37:56;;;;;;;6.45;2.10;;;23.00;45.00;;;;;;5066479;28;20049;-55
2023/05/18 10:40:24;;;;;;;3.53;2.03;;;23.00;44.90;;;;;;5068199;28;20550;-55
2023/05/18 10:42:52;;;;;;;3.53;2.10;;;23.10;45.00;;;;;;5066079;28;20048;-55
2023/05/18 10:45:19;;;;;;;3.03;2.33;;;23.10;45.00;;;;;;5067853;28;20094;-54
2023/05/18 10:47:52;;;;;;;2.20;2.00;;;23.10;44.90;;;;;;5063122;28;20048;-56
2023/05/18 10:50:22;;;;;;;6.30;2.20;;;23.10;44.80;;;;;;5063460;28;20105;-55
2023/05/18 10:52:51;;;;;;;4.72;2.35;;;23.10;44.80;;;;;;5065229;28;20113;-59
2023/05/18 10:55:19;;;;;;;3.50;2.10;;;23.20;45.00;;;;;;5062793;28;20059;-56
2023/05/18 10:57:56;;;;;;;2.67;2.08;;;23.10;45.00;;;;;;5061827;28;20073;-55
2023/05/18 11:00:23;;;;;;;2.55;1.90;;;23.10;45.10;;;;;;5063677;28;20473;-59
2023/05/18 11:02:51;;;;;;;3.75;1.90;;;23.20;45.20;;;;;;5060243;28;20135;-57
2023/05/18 11:05:26;;;;;;;2.28;1.85;;;23.20;45.20;;;;;;5069610;28;20516;-56
2023/05/18 11:08:04;;;;;;;5.72;2.67;;;23.20;45.30;;;;;;5065006;28;20131;-58
2023/05/18 11:10:42;;;;;;;3.20;2.47;;;23.20;45.30;;;;;;5058576;28;20070;-57
2023/05/18 11:13:10;;;;;;;1.90;1.70;;;23.30;45.40;;;;;;5074503;28;20074;-58
2023/05/18 11:16:04;;;;;;;3.72;2.00;;;23.30;45.40;;;;;;5062813;28;20447;-57
2023/05/18 11:18:46;;;;;;;5.72;2.38;;;23.30;45.40;;;;;;5059629;28;20056;-57
2023/05/18 11:21:34;;;;;;;2.97;1.90;;;23.30;45.50;;;;;;5068108;28;20127;-58
2023/05/18 11:24:22;;;;;;;2.33;1.92;;;23.30;45.50;;;;;;5060839;28;20059;-57
2023/05/18 11:27:15;;;;;;;3.00;1.77;;;23.30;45.40;;;;;;5061309;28;20053;-55
2023/05/18 11:29:43;;;;;;;3.95;2.28;;;23.30;45.50;;;;;;5066525;28;20476;-51
2023/05/18 11:32:22;;;;;;;2.70;2.17;;;23.30;45.60;;;;;;5063237;28;20428;-56
2023/05/18 11:34:56;;;;;;;4.75;2.35;;;23.40;45.80;;;;;;5067371;28;20412;-55
2023/05/18 11:37:46;;;;;;;3.15;2.30;;;23.40;45.80;;;;;;5064346;28;20113;-57
2023/05/18 11:40:43;;;;;;;3.10;2.40;;;23.40;45.80;;;;;;5080694;28;20040;-56
2023/05/18 11:43:22;;;;;;;4.10;2.08;;;23.40;45.70;;;;;;5062429;28;20077;-55
2023/05/18 11:45:55;;;;;;;4.90;2.10;;;23.40;45.70;;;;;;5065359;28;20044;-55
2023/05/18 11:48:30;;;;;;;6.22;3.05;;;23.40;45.60;;;;;;5066445;28;20470;-56
2023/05/18 11:50:58;;;;;;;5.15;2.60;;;23.40;45.50;;;;;;5061711;28;20052;-57
2023/05/18 11:53:28;;;;;;;4.72;2.17;;;23.40;45.60;;;;;;5064307;28;20397;-56
2023/05/18 11:55:58;;;;;;;2.78;2.08;;;23.50;45.60;;;;;;5059594;28;20091;-56
2023/05/18 11:58:25;;;;;;;3.13;2.38;;;23.50;45.70;;;;;;5064941;28;20132;-56
2023/05/18 12:00:54;;;;;;;2.63;2.25;;;23.50;45.60;;;;;;5061709;28;20139;-57
2023/05/18 12:03:25;;;;;;;5.40;2.63;;;23.50;45.60;;;;;;5063521;28;20414;-57
2023/05/18 12:05:59;;;;;;;3.33;2.30;;;23.50;45.70;;;;;;5065872;28;20610;-56
2023/05/18 12:08:28;;;;;;;3.45;2.13;;;23.50;45.70;;;;;;5067261;28;20155;-56
2023/05/18 12:10:56;;;;;;;4.70;2.37;;;23.50;45.60;;;;;;5065484;28;20052;-58
2023/05/18 12:13:24;;;;;;;3.75;2.20;;;23.50;45.60;;;;;;5067856;28;20048;-58
2023/05/18 12:15:51;;;;;;;3.50;2.30;;;23.50;45.60;;;;;;5065621;28;20048;-58
2023/05/18 12:18:19;;;;;;;4.05;2.97;;;23.50;45.70;;;;;;5062666;28;20090;-56
2023/05/18 12:20:48;;;;;;;3.45;2.75;;;23.50;45.90;;;;;;5062482;28;20041;-56
2023/05/18 12:23:15;;;;;;;4.80;2.83;;;23.50;46.40;;;;;;5065739;28;20072;-57
2023/05/18 12:25:42;;;;;;;5.03;2.80;;;23.50;45.80;;;;;;5065092;28;20072;-55
2023/05/18 12:28:10;;;;;;;4.07;2.40;;;23.50;45.80;;;;;;5065237;28;20485;-58
2023/05/18 12:30:38;;;;;;;2.28;2.05;;;23.50;45.80;;;;;;5065041;28;20036;-54
2023/05/18 12:33:06;;;;;;;3.70;2.65;;;23.50;45.90;;;;;;5067735;28;20056;-56
2023/05/18 12:35:33;;;;;;;4.65;2.78;;;23.50;45.90;;;;;;5061123;28;20045;-56
2023/05/18 12:38:01;;;;;;;7.75;2.80;;;23.50;45.90;;;;;;5066070;28;20528;-56
2023/05/18 12:40:43;;;;;;;5.00;2.90;;;23.50;45.90;;;;;;5067892;28;20392;-58
2023/05/18 12:43:11;;;;;;;6.70;2.55;;;23.50;46.00;;;;;;5065066;28;20464;-57
2023/05/18 12:45:39;;;;;;;2.80;2.53;;;23.60;46.00;;;;;;5064288;28;20060;-58
2023/05/18 12:48:09;;;;;;;4.00;2.45;;;23.60;45.90;;;;;;5063895;28;20390;-57
2023/05/18 12:50:47;;;;;;;4.90;3.15;;;23.60;45.90;;;;;;5066910;28;20087;-58
2023/05/18 12:53:16;;;;;;;5.78;2.80;;;23.60;45.80;;;;;;5063265;28;20404;-56
2023/05/18 12:55:44;;;;;;;3.88;3.08;;;23.60;45.80;;;;;;5067551;28;20493;-59
2023/05/18 12:58:15;;;;;;;4.35;2.45;;;23.60;45.70;;;;;;5064549;28;20063;-58
2023/05/18 13:00:44;;;;;;;3.78;2.67;;;23.60;45.70;;;;;;5065992;28;20053;-59